CheckWX is a tool to help pilots better visualize weather data.  It is not intended as a substitute for an official pre-flight weather briefing.

18:36:25 UTC

KCSM METAR
Clinton-Sherman Airport
Burns Flat, Oklahoma, USA
Current

43 mins ago

KCSM 221753Z 09009KT 10SM OVC004 06/05 A3000 RMK AO2 SLP164 T00560050 10056 20028 58016
Observed
Feb-22 @ 17:53 UTC
Wind
  • 090° at 9 KTS
Visibility
10 SM
Flight Rules
LIFR
Cloud Levels
  • Overcast at 400' AGL
Temperature
C / 43°F
Dewpoint
C / 41°F
Humidity
93%
Altimeter
30" Hg
Pressure
1016.4 hPa
Previous

2 hours ago

KCSM 221653Z 10010KT 3SM BR OVC003 04/04 A3001 RMK AO2 SLP169 T00440044
Observed
Feb-22 @ 16:53 UTC
Wind
  • 100° at 10 KTS
Visibility
3 SM
Flight Rules
LIFR
Conditions
Mist
Cloud Levels
  • Overcast at 300' AGL
Temperature
C / 39°F
Dewpoint
C / 39°F
Humidity
100%
Altimeter
30.01" Hg
Pressure
1016.9 hPa
Previous

2 hours ago

KCSM 221636Z 09011KT 3SM BR OVC003 04/04 A3002 RMK AO2 T00440044
Observed
Feb-22 @ 16:36 UTC
Wind
  • 090° at 11 KTS
Visibility
3 SM
Flight Rules
LIFR
Conditions
Mist
Cloud Levels
  • Overcast at 300' AGL
Temperature
C / 39°F
Dewpoint
C / 39°F
Humidity
100%
Altimeter
30.02" Hg
Pressure
1016.62 hPa